sensor_id;sensor_type;location;lat;lon;timestamp;pressure;altitude;pressure_sealevel;temperature;humidity
8292;BME280;4184;42.724;23.308;2022-08-21T00:01:23;94850.22;;;22.12;65.46
8292;BME280;4184;42.724;23.308;2022-08-21T00:03:53;94850.22;;;22.12;65.46
8292;BME280;4184;42.724;23.308;2022-08-21T00:06:21;94838.88;;;22.11;65.30
8292;BME280;4184;42.724;23.308;2022-08-21T00:08:50;94839.69;;;22.12;65.66
8292;BME280;4184;42.724;23.308;2022-08-21T00:11:18;94840.50;;;22.12;65.57
8292;BME280;4184;42.724;23.308;2022-08-21T00:13:45;94841.31;;;22.13;65.37
8292;BME280;4184;42.724;23.308;2022-08-21T00:16:13;94841.53;;;22.11;65.50
8292;BME280;4184;42.724;23.308;2022-08-21T00:18:40;94836.91;;;22.07;65.68
8292;BME280;4184;42.724;23.308;2022-08-21T00:21:11;94837.94;;;22.06;65.72
8292;BME280;4184;42.724;23.308;2022-08-21T00:23:39;94838.75;;;22.06;65.57
8292;BME280;4184;42.724;23.308;2022-08-21T00:26:07;94824.56;;;22.07;65.59
8292;BME280;4184;42.724;23.308;2022-08-21T00:28:35;94827.19;;;22.07;65.45
8292;BME280;4184;42.724;23.308;2022-08-21T00:31:03;94819.88;;;22.09;65.73
8292;BME280;4184;42.724;23.308;2022-08-21T00:33:31;94820.69;;;22.10;65.54
8292;BME280;4184;42.724;23.308;2022-08-21T00:35:59;94817.69;;;22.06;65.68
8292;BME280;4184;42.724;23.308;2022-08-21T00:38:28;94815.47;;;22.03;65.64
8292;BME280;4184;42.724;23.308;2022-08-21T00:40:58;94826.00;;;22.03;65.84
8292;BME280;4184;42.724;23.308;2022-08-21T00:43:28;94822.56;;;22.03;65.65
8292;BME280;4184;42.724;23.308;2022-08-21T00:45:57;94826.00;;;22.03;65.60
8292;BME280;4184;42.724;23.308;2022-08-21T00:48:25;94825.81;;;22.05;65.79
8292;BME280;4184;42.724;23.308;2022-08-21T00:50:54;94827.41;;;22.06;65.77
8292;BME280;4184;42.724;23.308;2022-08-21T00:53:24;94824.78;;;22.06;65.66
8292;BME280;4184;42.724;23.308;2022-08-21T00:55:53;94833.69;;;22.05;65.64
8292;BME280;4184;42.724;23.308;2022-08-21T00:58:22;94820.31;;;22.06;65.68
8292;BME280;4184;42.724;23.308;2022-08-21T01:00:50;94823.19;;;22.05;65.99
8292;BME280;4184;42.724;23.308;2022-08-21T01:03:20;94827.81;;;22.03;65.99
8292;BME280;4184;42.724;23.308;2022-08-21T01:05:48;94815.06;;;22.00;66.01
8292;BME280;4184;42.724;23.308;2022-08-21T01:08:17;94817.13;;;21.98;66.29
8292;BME280;4184;42.724;23.308;2022-08-21T01:10:45;94826.03;;;21.97;66.24
8292;BME280;4184;42.724;23.308;2022-08-21T01:13:17;94813.91;;;21.96;66.28
8292;BME280;4184;42.724;23.308;2022-08-21T01:15:48;94810.47;;;21.95;66.29
8292;BME280;4184;42.724;23.308;2022-08-21T01:18:18;94806.59;;;21.98;66.32
8292;BME280;4184;42.724;23.308;2022-08-21T01:21:05;94807.41;;;21.98;66.11
8292;BME280;4184;42.724;23.308;2022-08-21T01:23:34;94793.66;;;21.96;66.02
8292;BME280;4184;42.724;23.308;2022-08-21T01:26:03;94797.31;;;21.95;65.92
8292;BME280;4184;42.724;23.308;2022-08-21T01:28:33;94794.91;;;21.93;66.04
8292;BME280;4184;42.724;23.308;2022-08-21T01:31:02;94800.63;;;21.90;66.29
8292;BME280;4184;42.724;23.308;2022-08-21T01:33:30;94798.19;;;21.89;66.15
8292;BME280;4184;42.724;23.308;2022-08-21T01:35:58;94806.09;;;21.89;66.26
8292;BME280;4184;42.724;23.308;2022-08-21T01:38:27;94803.47;;;21.89;66.18
8292;BME280;4184;42.724;23.308;2022-08-21T01:40:54;94799.81;;;21.90;66.32
8292;BME280;4184;42.724;23.308;2022-08-21T01:43:22;94804.84;;;21.91;66.34
8292;BME280;4184;42.724;23.308;2022-08-21T01:45:49;94807.47;;;21.91;66.34
8292;BME280;4184;42.724;23.308;2022-08-21T01:48:17;94807.47;;;21.91;66.04
8292;BME280;4184;42.724;23.308;2022-08-21T01:50:44;94811.13;;;21.90;66.33
8292;BME280;4184;42.724;23.308;2022-08-21T01:53:12;94811.94;;;21.91;66.26
8292;BME280;4184;42.724;23.308;2022-08-21T01:55:43;94816.41;;;21.90;66.34
8292;BME280;4184;42.724;23.308;2022-08-21T01:58:10;94810.34;;;21.90;66.38
8292;BME280;4184;42.724;23.308;2022-08-21T02:00:38;94814.78;;;21.89;66.22
8292;BME280;4184;42.724;23.308;2022-08-21T02:03:05;94811.59;;;21.87;66.06
8292;BME280;4184;42.724;23.308;2022-08-21T02:05:33;94812.03;;;21.84;66.31
8292;BME280;4184;42.724;23.308;2022-08-21T02:08:01;94807.59;;;21.78;66.16
8292;BME280;4184;42.724;23.308;2022-08-21T02:10:31;94819.59;;;21.74;66.50
8292;BME280;4184;42.724;23.308;2022-08-21T02:13:00;94825.88;;;21.73;66.37
8292;BME280;4184;42.724;23.308;2022-08-21T02:15:28;94821.66;;;21.72;66.37
8292;BME280;4184;42.724;23.308;2022-08-21T02:18:00;94818.44;;;21.70;66.65
8292;BME280;4184;42.724;23.308;2022-08-21T02:20:31;94822.88;;;21.70;66.51
8292;BME280;4184;42.724;23.308;2022-08-21T02:22:59;94820.47;;;21.68;66.54
8292;BME280;4184;42.724;23.308;2022-08-21T02:25:28;94819.84;;;21.66;66.59
8292;BME280;4184;42.724;23.308;2022-08-21T02:27:57;94820.66;;;21.67;66.62
8292;BME280;4184;42.724;23.308;2022-08-21T02:30:33;94818.88;;;21.67;66.85
8292;BME280;4184;42.724;23.308;2022-08-21T02:33:00;94824.13;;;21.67;66.79
8292;BME280;4184;42.724;23.308;2022-08-21T02:35:29;94830.81;;;21.63;66.85
8292;BME280;4184;42.724;23.308;2022-08-21T02:37:58;94821.75;;;21.59;67.00
8292;BME280;4184;42.724;23.308;2022-08-21T02:40:29;94832.28;;;21.59;66.97
8292;BME280;4184;42.724;23.308;2022-08-21T02:42:58;94836.72;;;21.58;67.07
8292;BME280;4184;42.724;23.308;2022-08-21T02:45:27;94833.31;;;21.58;66.93
8292;BME280;4184;42.724;23.308;2022-08-21T02:47:57;94831.69;;;21.57;67.01
8292;BME280;4184;42.724;23.308;2022-08-21T02:50:27;94833.75;;;21.55;67.00
8292;BME280;4184;42.724;23.308;2022-08-21T02:52:55;94839.59;;;21.57;67.05
8292;BME280;4184;42.724;23.308;2022-08-21T02:55:25;94831.09;;;21.55;66.99
8292;BME280;4184;42.724;23.308;2022-08-21T02:57:54;94835.34;;;21.56;67.00
8292;BME280;4184;42.724;23.308;2022-08-21T03:00:24;94830.09;;;21.56;66.96
8292;BME280;4184;42.724;23.308;2022-08-21T03:02:53;94828.03;;;21.58;67.01
8292;BME280;4184;42.724;23.308;2022-08-21T03:05:22;94830.66;;;21.58;66.96
8292;BME280;4184;42.724;23.308;2022-08-21T03:07:51;94835.94;;;21.58;66.97
8292;BME280;4184;42.724;23.308;2022-08-21T03:10:20;94834.09;;;21.58;66.89
8292;BME280;4184;42.724;23.308;2022-08-21T03:12:47;94834.47;;;21.62;66.59
8292;BME280;4184;42.724;23.308;2022-08-21T03:15:17;94842.94;;;21.64;66.54
8292;BME280;4184;42.724;23.308;2022-08-21T03:17:47;94847.19;;;21.65;66.63
8292;BME280;4184;42.724;23.308;2022-08-21T03:20:18;94834.66;;;21.67;66.46
8292;BME280;4184;42.724;23.308;2022-08-21T03:22:46;94834.44;;;21.69;66.41
8292;BME280;4184;42.724;23.308;2022-08-21T03:25:13;94834.44;;;21.69;66.32
8292;BME280;4184;42.724;23.308;2022-08-21T03:27:41;94832.59;;;21.69;66.31
8292;BME280;4184;42.724;23.308;2022-08-21T03:30:10;94837.88;;;21.69;66.31
8292;BME280;4184;42.724;23.308;2022-08-21T03:32:38;94839.91;;;21.67;66.50
8292;BME280;4184;42.724;23.308;2022-08-21T03:35:08;94842.53;;;21.67;66.58
8292;BME280;4184;42.724;23.308;2022-08-21T03:37:37;94838.50;;;21.65;66.53
8292;BME280;4184;42.724;23.308;2022-08-21T03:40:06;94836.28;;;21.61;66.61
8292;BME280;4184;42.724;23.308;2022-08-21T03:42:34;94835.34;;;21.56;66.92
8292;BME280;4184;42.724;23.308;2022-08-21T03:45:02;94831.94;;;21.49;66.90
8292;BME280;4184;42.724;23.308;2022-08-21T03:47:30;94821.50;;;21.42;67.17
8292;BME280;4184;42.724;23.308;2022-08-21T03:49:58;94833.25;;;21.40;67.31
8292;BME280;4184;42.724;23.308;2022-08-21T03:52:25;94830.03;;;21.38;67.36
8292;BME280;4184;42.724;23.308;2022-08-21T03:54:54;94831.06;;;21.37;67.31
8292;BME280;4184;42.724;23.308;2022-08-21T03:57:22;94843.19;;;21.38;67.29
8292;BME280;4184;42.724;23.308;2022-08-21T03:59:49;94849.03;;;21.40;67.53
8292;BME280;4184;42.724;23.308;2022-08-21T04:02:19;94848.81;;;21.41;67.21
8292;BME280;4184;42.724;23.308;2022-08-21T04:04:48;94851.22;;;21.43;67.17
8292;BME280;4184;42.724;23.308;2022-08-21T04:07:15;94862.91;;;21.47;66.97
8292;BME280;4184;42.724;23.308;2022-08-21T04:09:43;94851.16;;;21.49;66.83
8292;BME280;4184;42.724;23.308;2022-08-21T04:12:13;94848.34;;;21.51;67.01
8292;BME280;4184;42.724;23.308;2022-08-21T04:14:40;94853.59;;;21.51;66.95
8292;BME280;4184;42.724;23.308;2022-08-21T04:17:08;94853.59;;;21.51;67.04
8292;BME280;4184;42.724;23.308;2022-08-21T04:19:35;94856.22;;;21.51;67.16
8292;BME280;4184;42.724;23.308;2022-08-21T04:22:03;94849.94;;;21.52;67.05
8292;BME280;4184;42.724;23.308;2022-08-21T04:24:30;94842.66;;;21.54;67.16
8292;BME280;4184;42.724;23.308;2022-08-21T04:26:58;94846.72;;;21.50;67.01
8292;BME280;4184;42.724;23.308;2022-08-21T04:29:27;94847.72;;;21.49;67.19
8292;BME280;4184;42.724;23.308;2022-08-21T04:31:54;94843.72;;;21.46;67.22
8292;BME280;4184;42.724;23.308;2022-08-21T04:34:22;94836.63;;;21.47;67.26
8292;BME280;4184;42.724;23.308;2022-08-21T04:36:49;94839.84;;;21.49;67.41
8292;BME280;4184;42.724;23.308;2022-08-21T04:39:17;94847.91;;;21.54;66.94
8292;BME280;4184;42.724;23.308;2022-08-21T04:41:44;94854.13;;;21.59;66.89
8292;BME280;4184;42.724;23.308;2022-08-21T04:44:12;94846.59;;;21.63;66.97
8292;BME280;4184;42.724;23.308;2022-08-21T04:46:41;94840.91;;;21.66;66.84
8292;BME280;4184;42.724;23.308;2022-08-21T04:49:09;94843.34;;;21.68;66.77
8292;BME280;4184;42.724;23.308;2022-08-21T04:51:37;94849.41;;;21.68;66.91
8292;BME280;4184;42.724;23.308;2022-08-21T04:54:10;94846.13;;;21.73;66.78
8292;BME280;4184;42.724;23.308;2022-08-21T04:56:43;94849.13;;;21.76;66.66
8292;BME280;4184;42.724;23.308;2022-08-21T04:59:14;94841.38;;;21.81;66.56
8292;BME280;4184;42.724;23.308;2022-08-21T05:01:44;94836.28;;;21.86;66.48
8292;BME280;4184;42.724;23.308;2022-08-21T05:04:15;94835.41;;;21.92;66.32
8292;BME280;4184;42.724;23.308;2022-08-21T05:06:48;94835.13;;;22.01;66.17
8292;BME280;4184;42.724;23.308;2022-08-21T05:09:19;94840.56;;;22.06;66.04
8292;BME280;4184;42.724;23.308;2022-08-21T05:11:47;94849.06;;;22.08;65.76
8292;BME280;4184;42.724;23.308;2022-08-21T05:14:16;94847.00;;;22.10;65.63
8292;BME280;4184;42.724;23.308;2022-08-21T05:16:45;94847.38;;;22.13;65.83
8292;BME280;4184;42.724;23.308;2022-08-21T05:19:13;94853.00;;;22.17;65.75
8292;BME280;4184;42.724;23.308;2022-08-21T05:21:42;94849.72;;;22.21;65.31
8292;BME280;4184;42.724;23.308;2022-08-21T05:24:11;94846.44;;;22.26;65.20
8292;BME280;4184;42.724;23.308;2022-08-21T05:26:39;94849.19;;;22.31;65.01
8292;BME280;4184;42.724;23.308;2022-08-21T05:29:06;94845.72;;;22.37;64.88
8292;BME280;4184;42.724;23.308;2022-08-21T05:31:34;94845.75;;;22.49;64.76
8292;BME280;4184;42.724;23.308;2022-08-21T05:34:03;94846.41;;;22.63;64.47
8292;BME280;4184;42.724;23.308;2022-08-21T05:36:31;94845.09;;;22.72;64.21
8292;BME280;4184;42.724;23.308;2022-08-21T05:38:59;94841.53;;;22.78;64.21
8292;BME280;4184;42.724;23.308;2022-08-21T05:41:33;94839.72;;;22.78;63.79
8292;BME280;4184;42.724;23.308;2022-08-21T05:44:01;94835.25;;;22.79;63.64
8292;BME280;4184;42.724;23.308;2022-08-21T05:46:29;94836.06;;;22.79;63.87
8292;BME280;4184;42.724;23.308;2022-08-21T05:48:56;94839.25;;;22.81;63.65
8292;BME280;4184;42.724;23.308;2022-08-21T05:51:25;94831.16;;;22.83;63.77
8292;BME280;4184;42.724;23.308;2022-08-21T05:53:53;94827.50;;;22.84;63.74
8292;BME280;4184;42.724;23.308;2022-08-21T05:56:20;94830.56;;;22.81;63.58
8292;BME280;4184;42.724;23.308;2022-08-21T05:58:48;94834.00;;;22.81;63.52
8292;BME280;4184;42.724;23.308;2022-08-21T06:01:15;94848.59;;;22.84;63.52
8292;BME280;4184;42.724;23.308;2022-08-21T06:03:43;94837.06;;;22.78;63.76
8292;BME280;4184;42.724;23.308;2022-08-21T06:06:10;94835.25;;;22.79;63.76
8292;BME280;4184;42.724;23.308;2022-08-21T06:08:39;94841.78;;;22.76;63.46
8292;BME280;4184;42.724;23.308;2022-08-21T06:11:07;94834.53;;;22.72;63.75
8292;BME280;4184;42.724;23.308;2022-08-21T06:13:35;94834.53;;;22.72;63.92
8292;BME280;4184;42.724;23.308;2022-08-21T06:16:05;94839.81;;;22.72;63.96
8292;BME280;4184;42.724;23.308;2022-08-21T06:18:34;94838.22;;;22.71;64.12
8292;BME280;4184;42.724;23.308;2022-08-21T06:21:02;94836.28;;;22.78;63.95
8292;BME280;4184;42.724;23.308;2022-08-21T06:23:30;94839.94;;;22.95;63.60
8292;BME280;4184;42.724;23.308;2022-08-21T06:25:59;94827.47;;;23.14;62.84
8292;BME280;4184;42.724;23.308;2022-08-21T06:28:27;94831.66;;;23.33;62.64
8292;BME280;4184;42.724;23.308;2022-08-21T06:30:55;94828.88;;;23.58;61.96
8292;BME280;4184;42.724;23.308;2022-08-21T06:33:22;94831.84;;;23.74;61.44
8292;BME280;4184;42.724;23.308;2022-08-21T06:35:51;94827.59;;;23.96;60.95
8292;BME280;4184;42.724;23.308;2022-08-21T06:38:18;94832.88;;;24.08;61.08
8292;BME280;4184;42.724;23.308;2022-08-21T06:40:46;94829.88;;;24.16;60.64
8292;BME280;4184;42.724;23.308;2022-08-21T06:43:17;94824.94;;;24.31;60.76
8292;BME280;4184;42.724;23.308;2022-08-21T06:45:45;94832.63;;;24.44;60.10
8292;BME280;4184;42.724;23.308;2022-08-21T06:48:12;94833.75;;;24.48;60.20
8292;BME280;4184;42.724;23.308;2022-08-21T06:50:40;94834.75;;;24.59;59.42
8292;BME280;4184;42.724;23.308;2022-08-21T06:53:10;94837.63;;;24.69;59.51
8292;BME280;4184;42.724;23.308;2022-08-21T06:55:39;94832.97;;;24.76;59.45
8292;BME280;4184;42.724;23.308;2022-08-21T06:58:07;94829.84;;;24.79;59.37
8292;BME280;4184;42.724;23.308;2022-08-21T07:00:38;94831.66;;;24.90;58.62
8292;BME280;4184;42.724;23.308;2022-08-21T07:03:15;94837.75;;;25.03;58.24
8292;BME280;4184;42.724;23.308;2022-08-21T07:05:43;94849.06;;;25.15;58.05
8292;BME280;4184;42.724;23.308;2022-08-21T07:08:11;94847.41;;;25.26;58.03
8292;BME280;4184;42.724;23.308;2022-08-21T07:10:39;94847.78;;;25.34;57.74
8292;BME280;4184;42.724;23.308;2022-08-21T07:13:06;94848.94;;;25.38;57.94
8292;BME280;4184;42.724;23.308;2022-08-21T07:15:35;94840.28;;;25.43;57.22
8292;BME280;4184;42.724;23.308;2022-08-21T07:18:03;94841.16;;;25.48;57.38
8292;BME280;4184;42.724;23.308;2022-08-21T07:20:32;94837.47;;;25.49;57.31
8292;BME280;4184;42.724;23.308;2022-08-21T07:23:02;94836.41;;;25.50;57.31
8292;BME280;4184;42.724;23.308;2022-08-21T07:25:30;94844.13;;;25.52;56.84
8292;BME280;4184;42.724;23.308;2022-08-21T07:27:58;94835.63;;;25.50;56.90
8292;BME280;4184;42.724;23.308;2022-08-21T07:30:26;94839.97;;;25.56;57.06
8292;BME280;4184;42.724;23.308;2022-08-21T07:32:55;94838.06;;;25.68;56.24
8292;BME280;4184;42.724;23.308;2022-08-21T07:35:24;94834.59;;;26.40;55.19
8292;BME280;4184;42.724;23.308;2022-08-21T07:37:51;94826.72;;;27.16;53.46
8292;BME280;4184;42.724;23.308;2022-08-21T07:40:19;94819.81;;;27.74;51.78
8292;BME280;4184;42.724;23.308;2022-08-21T07:42:48;94819.94;;;27.99;51.62
8292;BME280;4184;42.724;23.308;2022-08-21T07:45:19;94814.91;;;28.03;51.04
8292;BME280;4184;42.724;23.308;2022-08-21T07:47:47;94809.78;;;27.86;51.48
8292;BME280;4184;42.724;23.308;2022-08-21T07:50:17;94807.97;;;28.39;50.13
8292;BME280;4184;42.724;23.308;2022-08-21T07:52:45;94805.66;;;28.63;49.91
8292;BME280;4184;42.724;23.308;2022-08-21T07:55:18;94801.44;;;28.72;48.95
8292;BME280;4184;42.724;23.308;2022-08-21T07:57:48;94810.13;;;29.40;47.94
8292;BME280;4184;42.724;23.308;2022-08-21T08:00:18;94801.53;;;30.24;46.40
8292;BME280;4184;42.724;23.308;2022-08-21T08:02:52;94808.94;;;31.07;44.83
8292;BME280;4184;42.724;23.308;2022-08-21T08:05:25;94803.50;;;31.91;43.13
8292;BME280;4184;42.724;23.308;2022-08-21T08:07:53;94799.84;;;32.58;42.29
8292;BME280;4184;42.724;23.308;2022-08-21T08:10:22;94810.38;;;33.16;40.73
8292;BME280;4184;42.724;23.308;2022-08-21T08:12:51;94803.91;;;33.55;40.61
8292;BME280;4184;42.724;23.308;2022-08-21T08:15:25;94798.56;;;33.88;39.78
8292;BME280;4184;42.724;23.308;2022-08-21T08:17:56;94793.78;;;33.85;39.58
8292;BME280;4184;42.724;23.308;2022-08-21T08:20:29;94796.59;;;33.42;39.99
8292;BME280;4184;42.724;23.308;2022-08-21T08:22:58;94797.63;;;33.08;40.49
8292;BME280;4184;42.724;23.308;2022-08-21T08:25:45;94796.84;;;32.41;41.93
8292;BME280;4184;42.724;23.308;2022-08-21T08:28:13;94798.78;;;31.83;43.03
8292;BME280;4184;42.724;23.308;2022-08-21T08:30:51;94795.22;;;31.92;42.62
8292;BME280;4184;42.724;23.308;2022-08-21T08:33:22;94795.22;;;32.45;41.96
8292;BME280;4184;42.724;23.308;2022-08-21T08:35:54;94805.44;;;32.14;42.07
8292;BME280;4184;42.724;23.308;2022-08-21T08:38:24;94805.00;;;32.02;42.68
8292;BME280;4184;42.724;23.308;2022-08-21T08:41:04;94801.97;;;32.61;41.20
8292;BME280;4184;42.724;23.308;2022-08-21T08:43:36;94794.38;;;33.11;40.39
8292;BME280;4184;42.724;23.308;2022-08-21T08:46:11;94792.13;;;33.18;40.51
8292;BME280;4184;42.724;23.308;2022-08-21T08:48:45;94799.97;;;33.34;40.39
8292;BME280;4184;42.724;23.308;2022-08-21T08:51:37;94804.78;;;33.32;39.83
8292;BME280;4184;42.724;23.308;2022-08-21T08:54:12;94794.84;;;32.76;40.60
8292;BME280;4184;42.724;23.308;2022-08-21T08:56:45;94786.63;;;32.48;41.15
8292;BME280;4184;42.724;23.308;2022-08-21T08:59:18;94781.78;;;32.93;40.87
8292;BME280;4184;42.724;23.308;2022-08-21T09:02:03;94789.66;;;33.41;39.50
8292;BME280;4184;42.724;23.308;2022-08-21T09:04:37;94787.19;;;33.26;40.03
8292;BME280;4184;42.724;23.308;2022-08-21T09:10:17;94782.16;;;32.39;41.21
8292;BME280;4184;42.724;23.308;2022-08-21T09:12:59;94777.63;;;31.86;42.14
8292;BME280;4184;42.724;23.308;2022-08-21T09:15:51;94781.22;;;31.42;42.97
8292;BME280;4184;42.724;23.308;2022-08-21T09:18:31;94769.69;;;31.08;43.52
8292;BME280;4184;42.724;23.308;2022-08-21T09:21:11;94770.09;;;30.81;44.11
8292;BME280;4184;42.724;23.308;2022-08-21T09:23:52;94766.13;;;30.73;44.19
8292;BME280;4184;42.724;23.308;2022-08-21T09:26:25;94769.31;;;30.80;44.10
8292;BME280;4184;42.724;23.308;2022-08-21T09:28:56;94766.19;;;30.63;44.53
8292;BME280;4184;42.724;23.308;2022-08-21T09:31:29;94759.13;;;30.23;45.19
8292;BME280;4184;42.724;23.308;2022-08-21T09:34:03;94758.94;;;29.94;45.40
8292;BME280;4184;42.724;23.308;2022-08-21T09:36:36;94750.94;;;29.89;45.28
8292;BME280;4184;42.724;23.308;2022-08-21T09:39:10;94758.66;;;30.06;45.12
8292;BME280;4184;42.724;23.308;2022-08-21T09:41:38;94754.53;;;30.44;44.55
8292;BME280;4184;42.724;23.308;2022-08-21T09:44:07;94755.25;;;30.54;44.30
8292;BME280;4184;42.724;23.308;2022-08-21T09:46:35;94749.69;;;30.51;44.23
8292;BME280;4184;42.724;23.308;2022-08-21T09:49:04;94757.84;;;30.80;43.96
8292;BME280;4184;42.724;23.308;2022-08-21T09:51:33;94755.09;;;30.90;43.55
8292;BME280;4184;42.724;23.308;2022-08-21T09:54:15;94758.13;;;30.78;43.50
8292;BME280;4184;42.724;23.308;2022-08-21T09:56:54;94749.75;;;30.41;43.65
8292;BME280;4184;42.724;23.308;2022-08-21T09:59:40;94742.41;;;29.92;44.86
8292;BME280;4184;42.724;23.308;2022-08-21T10:02:24;94744.09;;;29.57;45.61
8292;BME280;4184;42.724;23.308;2022-08-21T10:04:53;94738.75;;;29.27;45.66
8292;BME280;4184;42.724;23.308;2022-08-21T10:07:22;94742.97;;;28.97;46.31
8292;BME280;4184;42.724;23.308;2022-08-21T10:10:01;94732.00;;;28.63;46.80
8292;BME280;4184;42.724;23.308;2022-08-21T10:12:38;94729.44;;;28.21;48.30
8292;BME280;4184;42.724;23.308;2022-08-21T10:15:17;94739.69;;;27.97;48.79
8292;BME280;4184;42.724;23.308;2022-08-21T10:17:56;94724.94;;;27.69;48.97
8292;BME280;4184;42.724;23.308;2022-08-21T10:20:33;94722.66;;;27.51;49.33
8292;BME280;4184;42.724;23.308;2022-08-21T10:23:28;94726.53;;;27.33;49.91
8292;BME280;4184;42.724;23.308;2022-08-21T10:26:11;94728.34;;;27.27;50.05
8292;BME280;4184;42.724;23.308;2022-08-21T10:28:50;94725.53;;;27.39;49.92
8292;BME280;4184;42.724;23.308;2022-08-21T10:31:32;94723.41;;;27.41;49.77
8292;BME280;4184;42.724;23.308;2022-08-21T10:34:14;94716.09;;;27.58;49.27
8292;BME280;4184;42.724;23.308;2022-08-21T10:36:50;94712.78;;;27.78;49.39
8292;BME280;4184;42.724;23.308;2022-08-21T10:39:23;94708.88;;;27.96;48.59
8292;BME280;4184;42.724;23.308;2022-08-21T10:42:12;94696.97;;;28.09;48.63
8292;BME280;4184;42.724;23.308;2022-08-21T10:44:53;94702.28;;;28.09;48.59
8292;BME280;4184;42.724;23.308;2022-08-21T10:47:30;94703.56;;;27.96;49.13
8292;BME280;4184;42.724;23.308;2022-08-21T10:50:08;94698.44;;;27.79;49.24
8292;BME280;4184;42.724;23.308;2022-08-21T10:52:51;94692.19;;;27.58;49.57
8292;BME280;4184;42.724;23.308;2022-08-21T10:55:23;94698.81;;;27.56;49.48
8292;BME280;4184;42.724;23.308;2022-08-21T10:57:58;94682.28;;;27.49;50.11
8292;BME280;4184;42.724;23.308;2022-08-21T11:00:30;94683.38;;;27.53;50.14
8292;BME280;4184;42.724;23.308;2022-08-21T11:03:04;94674.41;;;27.59;49.58
8292;BME280;4184;42.724;23.308;2022-08-21T11:05:35;94678.72;;;27.70;49.64
8292;BME280;4184;42.724;23.308;2022-08-21T11:08:08;94666.50;;;27.69;49.76
8292;BME280;4184;42.724;23.308;2022-08-21T11:10:46;94672.31;;;27.66;49.77
8292;BME280;4184;42.724;23.308;2022-08-21T11:13:24;94669.63;;;27.61;50.16
8292;BME280;4184;42.724;23.308;2022-08-21T11:16:00;94660.09;;;27.65;49.89
8292;BME280;4184;42.724;23.308;2022-08-21T11:18:33;94652.16;;;27.70;49.87
8292;BME280;4184;42.724;23.308;2022-08-21T11:21:08;94652.66;;;27.67;49.83
8292;BME280;4184;42.724;23.308;2022-08-21T11:23:44;94650.06;;;27.72;50.13
8292;BME280;4184;42.724;23.308;2022-08-21T11:26:17;94658.31;;;27.81;49.90
8292;BME280;4184;42.724;23.308;2022-08-21T11:28:52;94654.88;;;27.85;49.66
8292;BME280;4184;42.724;23.308;2022-08-21T11:31:32;94655.94;;;27.79;49.99
8292;BME280;4184;42.724;23.308;2022-08-21T11:34:19;94646.09;;;27.80;49.67
8292;BME280;4184;42.724;23.308;2022-08-21T11:36:57;94650.06;;;27.72;49.82
8292;BME280;4184;42.724;23.308;2022-08-21T11:39:35;94651.81;;;27.62;49.74
8292;BME280;4184;42.724;23.308;2022-08-21T11:42:13;94650.97;;;27.51;50.47
8292;BME280;4184;42.724;23.308;2022-08-21T11:44:51;94647.22;;;27.47;50.24
8292;BME280;4184;42.724;23.308;2022-08-21T11:47:31;94650.66;;;27.42;50.21
8292;BME280;4184;42.724;23.308;2022-08-21T11:50:14;94647.72;;;27.39;50.03
8292;BME280;4184;42.724;23.308;2022-08-21T11:52:47;94643.94;;;27.24;49.61
8292;BME280;4184;42.724;23.308;2022-08-21T11:55:19;94645.28;;;27.32;49.58
8292;BME280;4184;42.724;23.308;2022-08-21T11:57:53;94641.38;;;27.40;49.55
8292;BME280;4184;42.724;23.308;2022-08-21T12:00:28;94639.28;;;27.52;49.01
8292;BME280;4184;42.724;23.308;2022-08-21T12:02:58;94635.09;;;27.56;48.90
8292;BME280;4184;42.724;23.308;2022-08-21T12:05:35;94637.47;;;27.57;48.95
8292;BME280;4184;42.724;23.308;2022-08-21T12:08:06;94632.91;;;27.53;49.26
8292;BME280;4184;42.724;23.308;2022-08-21T12:10:36;94631.03;;;27.43;49.35
8292;BME280;4184;42.724;23.308;2022-08-21T12:13:10;94622.69;;;27.24;49.46
8292;BME280;4184;42.724;23.308;2022-08-21T12:15:41;94618.38;;;27.18;49.76
8292;BME280;4184;42.724;23.308;2022-08-21T12:18:22;94614.13;;;27.17;49.75
8292;BME280;4184;42.724;23.308;2022-08-21T12:21:04;94620.00;;;27.19;49.66
8292;BME280;4184;42.724;23.308;2022-08-21T12:23:33;94624.72;;;27.12;49.43
8292;BME280;4184;42.724;23.308;2022-08-21T12:26:26;94637.88;;;26.97;50.09
8292;BME280;4184;42.724;23.308;2022-08-21T12:29:16;94637.78;;;26.87;49.96
8292;BME280;4184;42.724;23.308;2022-08-21T12:31:54;94641.41;;;26.76;50.20
8292;BME280;4184;42.724;23.308;2022-08-21T12:34:25;94642.91;;;26.66;50.18
8292;BME280;4184;42.724;23.308;2022-08-21T12:36:56;94641.00;;;26.57;50.44
8292;BME280;4184;42.724;23.308;2022-08-21T12:39:27;94643.84;;;26.50;50.65
8292;BME280;4184;42.724;23.308;2022-08-21T12:42:00;94649.91;;;26.46;50.71
8292;BME280;4184;42.724;23.308;2022-08-21T12:44:35;94644.22;;;26.37;50.85
8292;BME280;4184;42.724;23.308;2022-08-21T12:47:13;94637.00;;;26.32;50.99
8292;BME280;4184;42.724;23.308;2022-08-21T12:49:48;94630.13;;;26.31;50.97
8292;BME280;4184;42.724;23.308;2022-08-21T12:52:22;94637.81;;;26.33;50.93
8292;BME280;4184;42.724;23.308;2022-08-21T12:54:50;94637.91;;;26.38;51.09
8292;BME280;4184;42.724;23.308;2022-08-21T12:57:21;94628.00;;;26.33;50.66
8292;BME280;4184;42.724;23.308;2022-08-21T12:59:54;94636.72;;;26.29;51.22
8292;BME280;4184;42.724;23.308;2022-08-21T13:02:25;94642.22;;;26.22;51.34
8292;BME280;4184;42.724;23.308;2022-08-21T13:04:54;94639.25;;;26.19;51.06
8292;BME280;4184;42.724;23.308;2022-08-21T13:07:27;94634.22;;;26.17;51.11
8292;BME280;4184;42.724;23.308;2022-08-21T13:09:59;94636.31;;;26.15;51.49
8292;BME280;4184;42.724;23.308;2022-08-21T13:12:31;94634.72;;;26.14;51.43
8292;BME280;4184;42.724;23.308;2022-08-21T13:15:02;94629.41;;;26.14;51.67
8292;BME280;4184;42.724;23.308;2022-08-21T13:17:36;94629.91;;;26.11;51.64
8292;BME280;4184;42.724;23.308;2022-08-21T13:20:09;94623.53;;;26.07;51.59
8292;BME280;4184;42.724;23.308;2022-08-21T13:22:41;94622.19;;;26.04;51.74
8292;BME280;4184;42.724;23.308;2022-08-21T13:25:15;94622.22;;;26.09;51.26
8292;BME280;4184;42.724;23.308;2022-08-21T13:27:45;94620.41;;;26.15;51.49
8292;BME280;4184;42.724;23.308;2022-08-21T13:30:23;94610.09;;;26.19;51.42
8292;BME280;4184;42.724;23.308;2022-08-21T13:32:57;94606.97;;;26.22;51.59
8292;BME280;4184;42.724;23.308;2022-08-21T13:35:27;94595.41;;;26.33;51.14